createdAt,value
2018-05-10T00:01:42.424Z,3.77
2018-05-10T00:04:45.680Z,3.20
2018-05-10T00:07:49.209Z,4.23
2018-05-10T00:10:53.467Z,3.43
2018-05-10T00:13:57.718Z,3.40
2018-05-10T00:17:01.064Z,3.77
2018-05-10T00:20:04.582Z,4.40
2018-05-10T00:23:08.673Z,4.13
2018-05-10T00:26:11.988Z,4.30
2018-05-10T00:29:15.622Z,3.47
2018-05-10T00:32:18.931Z,3.63
2018-05-10T00:35:22.290Z,3.60
2018-05-10T00:38:26.442Z,6.30
2018-05-10T00:41:30.026Z,6.27
2018-05-10T00:44:34.108Z,5.70
2018-05-10T00:47:37.540Z,7.27
2018-05-10T00:50:41.239Z,3.83
2018-05-10T00:53:46.067Z,4.40
2018-05-10T00:56:50.161Z,3.50
2018-05-10T00:59:53.436Z,4.47
2018-05-10T01:02:56.857Z,3.23
2018-05-10T01:06:00.282Z,2.80
2018-05-10T01:09:03.496Z,5.30
2018-05-10T01:12:08.246Z,4.03
2018-05-10T01:15:11.518Z,3.43
2018-05-10T01:18:14.807Z,4.07
2018-05-10T01:21:18.069Z,6.90
2018-05-10T01:24:21.330Z,3.47
2018-05-10T01:27:27.874Z,2.70
2018-05-10T01:30:43.425Z,3.43
2018-05-10T01:33:47.552Z,2.83
2018-05-10T01:36:50.823Z,3.20
2018-05-10T01:39:54.106Z,3.23
2018-05-10T01:42:57.362Z,2.67
2018-05-10T01:46:00.660Z,3.40
2018-05-10T01:49:03.996Z,2.37
2018-05-10T01:52:08.021Z,4.55
2018-05-10T01:55:11.282Z,4.87
2018-05-10T01:58:14.564Z,3.30
2018-05-10T02:01:17.811Z,2.33
2018-05-10T02:04:21.106Z,2.53
2018-05-10T02:07:24.365Z,3.67
2018-05-10T02:10:27.622Z,2.87
2018-05-10T02:13:31.014Z,2.67
2018-05-10T02:16:34.287Z,2.63
2018-05-10T02:19:38.301Z,1.70
2018-05-10T02:22:42.420Z,3.87
2018-05-10T02:25:46.489Z,2.90
2018-05-10T02:28:49.758Z,3.47
2018-05-10T02:31:53.004Z,2.33
2018-05-10T02:34:56.275Z,2.20
2018-05-10T02:37:59.524Z,2.73
2018-05-10T02:41:02.802Z,2.00
2018-05-10T02:44:06.820Z,1.80
2018-05-10T02:47:10.085Z,3.07
2018-05-10T02:50:13.329Z,3.87
2018-05-10T02:53:17.357Z,2.27
2018-05-10T02:56:20.625Z,2.47
2018-05-10T02:59:24.642Z,1.57
2018-05-10T03:02:27.930Z,3.20
2018-05-10T03:05:31.189Z,2.90
2018-05-10T03:08:34.520Z,1.53
2018-05-10T03:11:37.788Z,2.60
2018-05-10T03:14:41.042Z,1.70
2018-05-10T03:17:45.158Z,2.00
2018-05-10T03:20:49.173Z,2.70
2018-05-10T03:23:52.426Z,1.63
2018-05-10T03:26:55.708Z,2.20
2018-05-10T03:29:58.958Z,1.90
2018-05-10T03:33:02.970Z,3.08
2018-05-10T03:36:07.088Z,3.13
2018-05-10T03:39:11.117Z,3.07
2018-05-10T03:42:14.652Z,1.60
2018-05-10T03:45:17.916Z,2.97
2018-05-10T03:48:21.185Z,2.77
2018-05-10T03:51:24.505Z,1.83
2018-05-10T03:54:27.804Z,1.90
2018-05-10T03:57:31.808Z,4.77
2018-05-10T04:00:35.954Z,2.03
2018-05-10T04:03:57.213Z,1.98
2018-05-10T04:07:18.214Z,1.93
2018-05-10T04:10:39.194Z,3.37
2018-05-10T04:13:42.441Z,2.97
2018-05-10T04:16:45.687Z,1.70
2018-05-10T04:19:50.188Z,2.63
2018-05-10T04:22:53.547Z,2.90
2018-05-10T04:25:56.972Z,1.83
2018-05-10T04:29:01.858Z,2.20
2018-05-10T04:32:06.016Z,3.47
2018-05-10T04:35:09.312Z,2.07
2018-05-10T04:38:12.944Z,2.13
2018-05-10T04:41:16.249Z,3.33
2018-05-10T04:44:23.387Z,2.17
2018-05-10T04:47:26.778Z,2.07
2018-05-10T04:50:30.030Z,2.37
2018-05-10T04:53:34.984Z,1.77
2018-05-10T04:56:38.240Z,1.80
2018-05-10T04:59:41.771Z,1.63
2018-05-10T05:02:45.101Z,2.20
2018-05-10T05:05:49.313Z,1.40
2018-05-10T05:08:52.775Z,4.17
2018-05-10T05:11:56.202Z,3.70
2018-05-10T05:14:59.447Z,6.00
2018-05-10T05:18:03.757Z,2.00
2018-05-10T05:21:07.251Z,6.73
2018-05-10T05:24:11.342Z,1.10
2018-05-10T05:27:14.592Z,1.50
2018-05-10T05:30:17.904Z,1.30
2018-05-10T05:33:21.179Z,2.20
2018-05-10T05:36:24.460Z,1.60
2018-05-10T05:39:28.803Z,3.20
2018-05-10T05:42:32.511Z,2.07
2018-05-10T05:45:35.790Z,1.40
2018-05-10T05:48:39.975Z,2.20
2018-05-10T05:51:43.540Z,1.17
2018-05-10T05:54:46.842Z,1.40
2018-05-10T05:57:50.177Z,1.67
2018-05-10T06:00:53.445Z,2.07
2018-05-10T06:03:56.717Z,0.90
2018-05-10T06:07:00.017Z,3.63
2018-05-10T06:10:03.426Z,1.83
2018-05-10T06:13:07.782Z,1.50
2018-05-10T06:16:11.048Z,2.80
2018-05-10T06:19:14.428Z,2.53
2018-05-10T06:22:18.475Z,0.93
2018-05-10T06:25:21.742Z,0.97
2018-05-10T06:28:25.931Z,1.27
2018-05-10T06:31:29.239Z,0.80
2018-05-10T06:34:33.264Z,1.90
2018-05-10T06:37:37.293Z,1.30
2018-05-10T06:40:40.547Z,0.80
2018-05-10T06:43:43.869Z,1.33
2018-05-10T06:46:47.230Z,1.13
2018-05-10T06:49:50.405Z,1.23
2018-05-10T06:52:53.674Z,1.33
2018-05-10T06:55:57.917Z,0.93
2018-05-10T06:59:01.222Z,1.03
2018-05-10T07:02:04.479Z,1.43
2018-05-10T07:05:07.732Z,1.10
2018-05-10T07:08:12.157Z,1.57
2018-05-10T07:11:15.555Z,1.50
2018-05-10T07:14:18.825Z,1.07
2018-05-10T07:17:22.396Z,1.10
2018-05-10T07:20:26.397Z,1.20
2018-05-10T07:23:30.644Z,0.77
2018-05-10T07:26:34.072Z,0.97
2018-05-10T07:29:37.317Z,1.83
2018-05-10T07:32:42.087Z,1.57
2018-05-10T07:35:45.350Z,2.10
2018-05-10T07:38:48.605Z,1.67
2018-05-10T07:41:51.890Z,1.10
2018-05-10T07:44:56.013Z,3.20
2018-05-10T07:47:59.294Z,2.10
2018-05-10T07:51:02.536Z,1.20
2018-05-10T07:54:05.813Z,2.03
2018-05-10T07:57:09.857Z,4.23
2018-05-10T08:00:13.116Z,1.10
2018-05-10T08:03:17.242Z,1.02
2018-05-10T08:06:21.257Z,1.10
2018-05-10T08:09:25.311Z,1.73
2018-05-10T08:12:28.621Z,2.43
2018-05-10T08:15:31.892Z,1.33
2018-05-10T08:18:35.508Z,1.67
2018-05-10T08:21:38.777Z,2.43
2018-05-10T08:24:42.787Z,2.13
2018-05-10T08:27:47.799Z,2.37
2018-05-10T08:30:51.080Z,1.87
2018-05-10T08:33:55.303Z,2.33
2018-05-10T08:36:58.669Z,2.20
2018-05-10T08:40:02.108Z,1.60
2018-05-10T08:43:05.398Z,2.00
2018-05-10T08:46:08.661Z,1.80
2018-05-10T08:49:12.708Z,1.90
2018-05-10T08:52:16.138Z,4.17
2018-05-10T08:55:20.636Z,1.90
2018-05-10T08:58:23.910Z,2.37
2018-05-10T09:01:28.857Z,2.80
2018-05-10T09:04:32.247Z,2.50
2018-05-10T09:07:36.278Z,2.90
2018-05-10T09:10:39.526Z,1.90
2018-05-10T09:13:42.789Z,2.00
2018-05-10T09:16:46.075Z,3.28
2018-05-10T09:19:49.381Z,1.50
2018-05-10T09:22:52.690Z,5.87
2018-05-10T09:25:56.018Z,1.10
2018-05-10T09:28:59.311Z,0.87
2018-05-10T09:32:02.581Z,2.40
2018-05-10T09:35:05.848Z,2.40
2018-05-10T09:38:09.951Z,1.20
2018-05-10T09:41:13.216Z,1.20
2018-05-10T09:44:16.504Z,1.17
2018-05-10T09:47:19.783Z,1.30
2018-05-10T09:50:24.051Z,1.67
2018-05-10T09:53:27.434Z,0.73
2018-05-10T09:56:30.697Z,2.87
2018-05-10T09:59:33.958Z,2.00
2018-05-10T10:02:37.221Z,4.53
2018-05-10T10:05:41.259Z,1.07
2018-05-10T10:08:45.366Z,1.47
2018-05-10T10:11:49.386Z,1.70
2018-05-10T10:14:53.412Z,1.00
2018-05-10T10:17:57.461Z,3.47
2018-05-10T10:21:01.012Z,2.00
2018-05-10T10:24:04.361Z,0.80
2018-05-10T10:27:08.656Z,2.53
2018-05-10T10:30:12.683Z,0.70
2018-05-10T10:33:16.760Z,6.13
2018-05-10T10:36:20.010Z,1.97
2018-05-10T10:39:23.509Z,1.87
2018-05-10T10:42:27.551Z,1.70
2018-05-10T10:45:30.981Z,2.10
2018-05-10T10:48:34.174Z,4.03
2018-05-10T10:51:37.432Z,1.10
2018-05-10T10:54:40.813Z,1.33
2018-05-10T10:57:44.865Z,0.80
2018-05-10T11:00:48.114Z,1.43
2018-05-10T11:03:52.139Z,2.37
2018-05-10T11:06:56.171Z,1.00
2018-05-10T11:09:59.467Z,1.57
2018-05-10T11:13:03.669Z,1.57
2018-05-10T11:16:07.829Z,3.72
2018-05-10T11:19:11.118Z,1.07
2018-05-10T11:22:14.406Z,2.40
2018-05-10T11:25:18.431Z,0.90
2018-05-10T11:28:22.445Z,0.73
2018-05-10T11:31:25.704Z,1.50
2018-05-10T11:34:29.042Z,1.13
2018-05-10T11:37:33.069Z,4.13
2018-05-10T11:40:36.367Z,2.17
2018-05-10T11:43:39.683Z,1.43
2018-05-10T11:46:43.065Z,2.53
2018-05-10T11:49:46.386Z,2.10
2018-05-10T11:52:49.682Z,1.60
2018-05-10T11:55:52.938Z,4.63
2018-05-10T11:58:56.247Z,0.93
2018-05-10T12:01:59.580Z,4.43
2018-05-10T12:05:02.887Z,0.97
2018-05-10T12:08:06.143Z,1.63
2018-05-10T12:11:09.407Z,1.43
2018-05-10T12:14:12.660Z,1.07
2018-05-10T12:17:16.691Z,1.23
2018-05-10T12:20:20.011Z,4.40
2018-05-10T12:23:23.247Z,3.70
2018-05-10T12:26:26.605Z,4.90
2018-05-10T12:29:29.847Z,6.47
2018-05-10T12:32:34.629Z,8.27
2018-05-10T12:35:37.956Z,3.17
2018-05-10T12:38:41.233Z,1.60
2018-05-10T12:41:44.528Z,3.43
2018-05-10T12:44:47.788Z,2.87
2018-05-10T12:48:02.642Z,5.77
2018-05-10T12:51:06.005Z,1.60
2018-05-10T12:54:09.271Z,7.27
2018-05-10T12:57:12.514Z,2.30
2018-05-10T13:00:15.788Z,10.47
2018-05-10T13:03:19.818Z,3.17
2018-05-10T13:06:23.121Z,2.47
2018-05-10T13:09:27.185Z,2.83
2018-05-10T13:12:30.434Z,1.70
2018-05-10T13:15:33.698Z,2.10
2018-05-10T13:18:36.978Z,1.60
2018-05-10T13:21:40.422Z,1.83
2018-05-10T13:24:43.815Z,1.67
2018-05-10T13:27:47.938Z,1.43
2018-05-10T13:30:52.251Z,2.83
2018-05-10T13:33:57.798Z,3.13
2018-05-10T13:37:01.113Z,4.17
2018-05-10T13:40:05.174Z,2.10
2018-05-10T13:43:08.503Z,3.03
2018-05-10T13:46:11.845Z,1.37
2018-05-10T13:49:15.178Z,3.10
2018-05-10T13:52:18.608Z,1.77
2018-05-10T13:55:21.896Z,1.30
2018-05-10T13:58:25.387Z,1.87
2018-05-10T14:01:53.554Z,2.37
2018-05-10T14:04:58.334Z,1.20
2018-05-10T14:08:01.693Z,4.77
2018-05-10T14:11:05.770Z,1.80
2018-05-10T14:14:09.019Z,1.77
2018-05-10T14:17:12.300Z,2.37
2018-05-10T14:20:16.387Z,2.10
2018-05-10T14:23:19.895Z,1.10
2018-05-10T14:26:23.190Z,1.10
2018-05-10T14:29:26.568Z,3.10
2018-05-10T14:32:29.857Z,0.90
2018-05-10T14:35:33.128Z,1.10
2018-05-10T14:38:43.208Z,1.10
2018-05-10T14:41:46.732Z,1.33
2018-05-10T14:44:50.668Z,1.10
2018-05-10T14:47:54.847Z,1.30
2018-05-10T14:50:59.411Z,0.77
2018-05-10T14:54:03.167Z,2.97
2018-05-10T14:57:06.466Z,1.60
2018-05-10T15:00:09.766Z,0.83
2018-05-10T15:03:13.127Z,2.00
2018-05-10T15:06:16.486Z,0.90
2018-05-10T15:09:19.829Z,3.70
2018-05-10T15:12:23.123Z,1.27
2018-05-10T15:15:26.517Z,1.87
2018-05-10T15:18:29.726Z,1.13
2018-05-10T15:21:33.777Z,0.67
2018-05-10T15:24:37.113Z,0.73
2018-05-10T15:27:40.413Z,0.57
2018-05-10T15:30:43.777Z,1.60
2018-05-10T15:33:47.055Z,0.60
2018-05-10T15:36:50.362Z,0.70
2018-05-10T15:39:53.811Z,1.23
2018-05-10T15:42:57.272Z,1.17
2018-05-10T15:46:00.710Z,0.50
2018-05-10T15:49:04.072Z,2.07
2018-05-10T15:52:07.445Z,0.50
2018-05-10T15:55:10.720Z,3.63
2018-05-10T15:58:14.044Z,0.70
2018-05-10T16:01:17.325Z,1.73
2018-05-10T16:04:20.578Z,1.00
2018-05-10T16:07:23.856Z,0.70
2018-05-10T16:10:27.181Z,1.13
2018-05-10T16:13:31.706Z,0.83
2018-05-10T16:16:35.735Z,0.47
2018-05-10T16:19:38.991Z,0.50
2018-05-10T16:22:43.090Z,1.23
2018-05-10T16:25:46.369Z,0.60
2018-05-10T16:28:49.667Z,1.13
2018-05-10T16:31:53.763Z,0.50
2018-05-10T16:34:57.067Z,1.03
2018-05-10T16:38:01.060Z,1.30
2018-05-10T16:41:04.399Z,1.83
2018-05-10T16:44:07.696Z,0.50
2018-05-10T16:47:10.981Z,0.40
2018-05-10T16:50:14.234Z,0.77
2018-05-10T16:53:18.277Z,0.40
2018-05-10T16:56:21.568Z,0.47
2018-05-10T16:59:24.849Z,0.40
2018-05-10T17:02:28.154Z,0.40
2018-05-10T17:05:31.495Z,0.43
2018-05-10T17:08:35.524Z,0.37
2018-05-10T17:11:38.860Z,0.50
2018-05-10T17:14:42.145Z,0.60
2018-05-10T17:17:45.417Z,0.70
2018-05-10T17:20:48.671Z,0.70
2018-05-10T17:23:51.927Z,0.97
2018-05-10T17:26:55.244Z,0.30
2018-05-10T17:29:58.503Z,0.50
2018-05-10T17:33:02.539Z,0.40
2018-05-10T17:36:05.931Z,0.30
2018-05-10T17:39:09.230Z,0.60
2018-05-10T17:42:12.581Z,0.50
2018-05-10T17:45:16.034Z,1.80
2018-05-10T17:48:19.295Z,0.40
2018-05-10T17:51:22.597Z,0.30
2018-05-10T17:54:25.840Z,0.60
2018-05-10T17:57:29.376Z,3.00
2018-05-10T18:00:32.650Z,0.50
2018-05-10T18:03:35.922Z,0.20
2018-05-10T18:06:39.978Z,0.70
2018-05-10T18:09:43.249Z,0.67
2018-05-10T18:12:47.312Z,0.30
2018-05-10T18:15:50.572Z,0.30
2018-05-10T18:18:56.770Z,0.37
2018-05-10T18:22:01.319Z,0.40
2018-05-10T18:25:04.595Z,0.73
2018-05-10T18:28:08.698Z,0.40
2018-05-10T18:31:12.107Z,1.45
2018-05-10T18:34:15.414Z,0.30
2018-05-10T18:37:19.058Z,0.60
2018-05-10T18:40:22.365Z,0.40
2018-05-10T18:43:25.681Z,1.17
2018-05-10T18:46:29.766Z,0.33
2018-05-10T18:49:33.010Z,1.63
2018-05-10T18:52:36.277Z,0.40
2018-05-10T18:55:39.620Z,0.50
2018-05-10T18:58:42.973Z,0.87
2018-05-10T19:01:46.258Z,1.75
2018-05-10T19:04:49.505Z,0.33
2018-05-10T19:07:52.874Z,0.43
2018-05-10T19:10:56.185Z,1.73
2018-05-10T19:13:59.492Z,0.67
2018-05-10T19:17:02.849Z,0.50
2018-05-10T19:20:06.941Z,0.43
2018-05-10T19:23:10.502Z,0.77
2018-05-10T19:26:13.753Z,1.03
2018-05-10T19:29:17.016Z,0.87
2018-05-10T19:32:21.462Z,0.80
2018-05-10T19:35:24.735Z,2.67
2018-05-10T19:38:28.366Z,2.00
2018-05-10T19:41:31.641Z,2.00
2018-05-10T19:44:34.958Z,2.27
2018-05-10T19:47:38.269Z,1.80
2018-05-10T19:50:41.602Z,2.33
2018-05-10T19:53:44.893Z,2.27
2018-05-10T19:56:48.285Z,1.37
2018-05-10T19:59:51.776Z,0.90
2018-05-10T20:02:56.318Z,1.20
2018-05-10T20:05:59.579Z,0.80
2018-05-10T20:09:03.629Z,1.43
2018-05-10T20:12:06.877Z,1.30
2018-05-10T20:15:11.006Z,1.70
2018-05-10T20:18:15.439Z,1.77
2018-05-10T20:21:23.061Z,1.80
2018-05-10T20:24:26.320Z,1.77
2018-05-10T20:27:29.626Z,1.67
2018-05-10T20:30:33.755Z,3.90
2018-05-10T20:33:37.790Z,2.83
2018-05-10T20:36:41.104Z,4.50
2018-05-10T20:39:45.787Z,4.27
2018-05-10T20:42:50.188Z,5.47
2018-05-10T20:45:53.438Z,4.10
2018-05-10T20:48:56.699Z,3.10
2018-05-10T20:51:59.981Z,5.60
2018-05-10T20:55:03.263Z,3.87
2018-05-10T20:58:36.768Z,4.90
2018-05-10T21:01:42.321Z,5.35
2018-05-10T21:04:45.581Z,6.77
2018-05-10T21:07:49.626Z,3.93
2018-05-10T21:10:52.952Z,6.27
2018-05-10T21:13:56.215Z,7.40
2018-05-10T21:16:59.481Z,5.20
2018-05-10T21:20:03.514Z,6.33
2018-05-10T21:23:06.843Z,6.27
2018-05-10T21:26:10.063Z,5.73
2018-05-10T21:29:13.297Z,5.90
2018-05-10T21:32:16.759Z,6.15
2018-05-10T21:35:20.026Z,4.97
2018-05-10T21:38:24.058Z,5.03
2018-05-10T21:41:27.324Z,5.37
2018-05-10T21:44:30.581Z,6.53
2018-05-10T21:47:33.871Z,5.40
2018-05-10T21:50:37.126Z,5.70
2018-05-10T21:53:41.254Z,6.80
2018-05-10T21:56:45.325Z,5.63
2018-05-10T21:59:49.369Z,4.53
2018-05-10T22:02:52.689Z,4.50
2018-05-10T22:05:56.716Z,7.23
2018-05-10T22:09:00.979Z,8.00
2018-05-10T22:12:04.273Z,4.47
2018-05-10T22:15:07.476Z,10.90
2018-05-10T22:18:10.749Z,6.53
2018-05-10T22:21:14.137Z,6.17
2018-05-10T22:24:18.167Z,6.73
2018-05-10T22:27:21.425Z,4.67
2018-05-10T22:30:24.681Z,4.17
2018-05-10T22:33:28.165Z,7.23
2018-05-10T22:36:32.182Z,3.83
2018-05-10T22:39:36.203Z,7.87
2018-05-10T22:42:40.336Z,3.70
2018-05-10T22:45:43.586Z,5.90
2018-05-10T22:48:48.279Z,6.37
2018-05-10T22:51:51.529Z,4.77
2018-05-10T22:54:54.851Z,5.33
2018-05-10T22:57:58.865Z,6.37
2018-05-10T23:01:03.013Z,5.90
2018-05-10T23:04:06.274Z,5.90
2018-05-10T23:07:09.527Z,4.63
2018-05-10T23:10:12.802Z,5.07
2018-05-10T23:13:16.921Z,4.10
2018-05-10T23:16:20.948Z,5.27
2018-05-10T23:19:24.969Z,3.37
2018-05-10T23:22:28.259Z,4.17
2018-05-10T23:25:32.279Z,5.43
2018-05-10T23:28:35.562Z,2.37
2018-05-10T23:31:38.819Z,2.83
2018-05-10T23:34:42.075Z,4.27
2018-05-10T23:37:46.108Z,2.20
2018-05-10T23:40:50.131Z,4.03
2018-05-10T23:43:54.147Z,2.37
2018-05-10T23:46:57.401Z,2.23
2018-05-10T23:50:00.657Z,4.23
2018-05-10T23:53:03.926Z,2.03
2018-05-10T23:56:07.979Z,2.67
2018-05-10T23:59:11.244Z,3.77
